Terminal Aerodrome Forecast
Issued by NWS

Home | Current Version | Previous Version | Text Only | Print | Product List | Glossary On
Versions: 1 2 3 4 5 6 7 8 9 10 11 12 13 14 15 16 17 18 19 20 21 22 23 24 25 26 27 28 29 30 31 32 33 34 35 36 37 38 39 40 41 42 43 44 45 46 47 48 49 50
000
FTUS45 KBOI 231533 AAA
TAFBKE
TAF AMD
KBKE 231533Z 2316/2412 VRB04KT P6SM BCFG BKN002 OVC005
     FM231800 31006KT P6SM SCT030 BKN060
     FM240300 VRB05KT P6SM VCFG BKN100
      TEMPO 2407/2409 4SM BR
     FM240900 VRB05KT 4SM BR SCT015 BKN100=

USA.gov is the U.S. government's official web portal to all federal, state and local government web resources and services.